createdAt,value
2022-12-04T00:02:16.048Z,-0.22
2022-12-04T00:04:42.762Z,-0.44
2022-12-04T00:07:09.387Z,-0.58
2022-12-04T00:09:36.064Z,-0.40
2022-12-04T00:12:02.716Z,-0.33
2022-12-04T00:14:29.407Z,-0.31
2022-12-04T00:16:56.140Z,-0.32
2022-12-04T00:19:22.897Z,-0.23
2022-12-04T00:21:50.803Z,-0.20
2022-12-04T00:24:17.538Z,-0.22
2022-12-04T00:26:44.256Z,-0.33
2022-12-04T00:29:10.911Z,-0.68
2022-12-04T00:31:37.730Z,-0.13
2022-12-04T00:34:07.939Z,-0.35
2022-12-04T00:36:35.031Z,-0.55
2022-12-04T00:39:02.148Z,-0.14
2022-12-04T00:41:30.498Z,-0.19
2022-12-04T00:43:57.230Z,-0.09
2022-12-04T00:46:24.249Z,-0.08
2022-12-04T00:48:51.550Z,-0.15
2022-12-04T00:51:24.892Z,-0.16
2022-12-04T00:53:53.000Z,-0.09
2022-12-04T00:56:23.104Z,-0.21
2022-12-04T00:58:52.919Z,-0.03
2022-12-04T01:01:20.901Z,-0.37
2022-12-04T01:03:48.709Z,-0.05
2022-12-04T01:06:24.844Z,-0.10
2022-12-04T01:08:53.819Z,-0.14
2022-12-04T01:11:22.320Z,-0.12
2022-12-04T01:13:48.988Z,-0.09
2022-12-04T01:16:28.338Z,-0.07
2022-12-04T01:18:55.186Z,-0.24
2022-12-04T01:21:22.239Z,-0.15
2022-12-04T01:23:49.308Z,-0.09
2022-12-04T01:26:16.090Z,-0.31
2022-12-04T01:28:42.817Z,-0.26
2022-12-04T01:31:15.825Z,-0.20
2022-12-04T01:33:42.961Z,-0.13
2022-12-04T01:36:13.341Z,-0.11
2022-12-04T01:38:40.468Z,-0.35
2022-12-04T01:41:08.331Z,-0.05
2022-12-04T01:43:37.088Z,0.01
2022-12-04T01:46:04.787Z,0.02
2022-12-04T01:48:34.406Z,0.01
2022-12-04T01:51:16.566Z,0.01
2022-12-04T01:53:49.040Z,0.01
2022-12-04T01:56:17.315Z,0.01
2022-12-04T01:58:48.487Z,0.05
2022-12-04T02:01:15.209Z,-0.13
2022-12-04T02:03:41.911Z,0.06
2022-12-04T02:06:08.563Z,-0.16
2022-12-04T02:08:36.485Z,0.09
2022-12-04T02:11:09.153Z,-0.16
2022-12-04T02:14:07.691Z,0.05
2022-12-04T02:16:40.226Z,0.11
2022-12-04T02:19:17.549Z,0.01
2022-12-04T02:21:49.490Z,-0.32
2022-12-04T02:24:46.743Z,0.08
2022-12-04T02:28:11.787Z,-0.07
2022-12-04T02:30:42.464Z,0.04
2022-12-04T02:33:20.712Z,-0.12
2022-12-04T02:35:55.479Z,-0.20
2022-12-04T02:38:42.004Z,0.10
2022-12-04T02:41:17.513Z,-0.05
2022-12-04T02:43:48.968Z,0.12
2022-12-04T02:46:24.205Z,0.12
2022-12-04T02:48:55.448Z,-0.15
2022-12-04T02:51:24.888Z,0.12
2022-12-04T02:53:56.838Z,0.15
2022-12-04T02:56:28.107Z,-0.02
2022-12-04T02:59:29.528Z,-0.15
2022-12-04T03:02:01.155Z,0.06
2022-12-04T03:04:30.718Z,0.01
2022-12-04T03:07:02.482Z,-0.11
2022-12-04T03:09:45.184Z,-0.15
2022-12-04T03:12:21.257Z,0.15
2022-12-04T03:15:28.427Z,0.14
2022-12-04T03:18:01.163Z,0.02
2022-12-04T03:20:31.515Z,-0.01
2022-12-04T03:23:11.575Z,0.05
2022-12-04T03:25:56.276Z,0.02
2022-12-04T03:28:33.707Z,0.18
2022-12-04T03:31:08.051Z,0.08
2022-12-04T03:33:46.200Z,0.14
2022-12-04T03:36:12.903Z,0.20
2022-12-04T03:38:47.407Z,0.05
2022-12-04T03:41:36.659Z,0.11
2022-12-04T03:44:26.074Z,0.17
2022-12-04T03:47:01.684Z,0.08
2022-12-04T03:49:50.993Z,0.07
2022-12-04T03:52:27.466Z,0.12
2022-12-04T03:55:01.238Z,0.07
2022-12-04T03:57:36.462Z,0.14
2022-12-04T04:00:19.201Z,0.01
2022-12-04T04:03:09.685Z,0.00
2022-12-04T04:05:41.293Z,-0.10
2022-12-04T04:08:26.165Z,0.07
2022-12-04T04:10:57.795Z,0.15
2022-12-04T04:13:55.113Z,0.18
2022-12-04T04:16:43.284Z,0.17
2022-12-04T04:19:32.441Z,0.12
2022-12-04T04:22:21.561Z,0.08
2022-12-04T04:24:59.476Z,0.10
2022-12-04T04:27:26.053Z,0.07
2022-12-04T04:29:53.036Z,0.17
2022-12-04T04:32:29.016Z,0.28
2022-12-04T04:35:14.399Z,0.28
2022-12-04T04:37:49.637Z,0.14
2022-12-04T04:40:25.617Z,0.31
2022-12-04T04:43:16.064Z,0.27
2022-12-04T04:46:05.252Z,0.31
2022-12-04T04:48:40.727Z,0.04
2022-12-04T04:51:07.976Z,0.25
2022-12-04T04:53:39.146Z,0.27
2022-12-04T04:56:07.361Z,0.10
2022-12-04T04:58:34.143Z,0.05
2022-12-04T05:01:05.261Z,0.01
2022-12-04T05:03:32.317Z,0.27
2022-12-04T05:05:59.394Z,0.12
2022-12-04T05:08:26.048Z,0.08
2022-12-04T05:10:52.744Z,0.32
2022-12-04T05:13:20.517Z,0.14
2022-12-04T05:15:58.787Z,0.34
2022-12-04T05:18:25.881Z,0.11
2022-12-04T05:20:52.579Z,0.18
2022-12-04T05:23:19.309Z,0.21
2022-12-04T05:25:46.094Z,0.42
2022-12-04T05:28:12.783Z,0.25
2022-12-04T05:30:39.431Z,0.36
2022-12-04T05:33:06.037Z,0.28
2022-12-04T05:35:32.856Z,0.47
2022-12-04T05:37:59.441Z,0.36
2022-12-04T05:40:26.049Z,0.13
2022-12-04T05:42:52.631Z,0.45
2022-12-04T05:45:22.109Z,0.46
2022-12-04T05:47:48.725Z,0.33
2022-12-04T05:50:15.293Z,0.47
2022-12-04T05:52:42.373Z,0.26
2022-12-04T05:55:09.158Z,0.01
2022-12-04T05:57:35.767Z,0.28
2022-12-04T06:00:02.443Z,0.45
2022-12-04T06:02:38.017Z,0.37
2022-12-04T06:05:05.191Z,0.32
2022-12-04T06:07:31.869Z,0.26
2022-12-04T06:09:58.628Z,0.52
2022-12-04T06:12:25.265Z,0.54
2022-12-04T06:14:51.908Z,0.52
2022-12-04T06:17:18.725Z,0.58
2022-12-04T06:19:45.615Z,0.38
2022-12-04T06:22:13.989Z,0.42
2022-12-04T06:24:40.865Z,0.21
2022-12-04T06:29:54.417Z,0.39
2022-12-04T06:32:22.172Z,0.67
2022-12-04T06:34:53.632Z,0.57
2022-12-04T06:37:25.100Z,0.49
2022-12-04T06:39:51.709Z,0.67
2022-12-04T06:42:18.366Z,0.56
2022-12-04T06:44:45.021Z,0.54
2022-12-04T06:47:11.666Z,0.49
2022-12-04T06:49:38.328Z,0.24
2022-12-04T06:52:04.958Z,0.41
2022-12-04T06:54:31.564Z,0.49
2022-12-04T06:56:58.168Z,0.52
2022-12-04T06:59:24.739Z,0.69
2022-12-04T07:01:51.404Z,0.58
2022-12-04T07:04:18.016Z,0.58
2022-12-04T07:06:44.659Z,0.36
2022-12-04T07:09:15.266Z,0.56
2022-12-04T07:11:42.801Z,0.66
2022-12-04T07:14:10.276Z,0.54
2022-12-04T07:16:41.093Z,0.51
2022-12-04T07:19:09.878Z,0.49
2022-12-04T07:21:36.513Z,0.57
2022-12-04T07:24:03.491Z,0.65
2022-12-04T07:26:30.966Z,0.68
2022-12-04T07:28:58.926Z,0.59
2022-12-04T07:31:27.546Z,0.89
2022-12-04T07:33:54.679Z,0.77
2022-12-04T07:36:23.377Z,0.89
2022-12-04T07:38:50.511Z,0.74
2022-12-04T07:41:18.987Z,0.71
2022-12-04T07:43:45.697Z,0.97
2022-12-04T07:46:15.928Z,1.02
2022-12-04T07:48:42.993Z,1.02
2022-12-04T07:51:17.847Z,0.87
2022-12-04T07:53:44.784Z,1.08
2022-12-04T07:56:12.944Z,1.04
2022-12-04T07:58:40.312Z,1.11
2022-12-04T08:01:09.610Z,1.11
2022-12-04T08:03:40.866Z,0.82
2022-12-04T08:06:10.870Z,1.12
2022-12-04T08:08:37.897Z,1.10
2022-12-04T08:11:13.923Z,1.05
2022-12-04T08:13:40.606Z,1.02
2022-12-04T08:16:09.087Z,1.07
2022-12-04T08:18:35.759Z,1.02
2022-12-04T08:21:14.745Z,1.24
2022-12-04T08:23:42.810Z,1.18
2022-12-04T08:26:10.556Z,1.20
2022-12-04T08:28:37.205Z,1.06
2022-12-04T08:31:22.109Z,1.10
2022-12-04T08:33:51.375Z,1.31
2022-12-04T08:36:20.371Z,1.33
2022-12-04T08:38:47.742Z,1.18
2022-12-04T08:41:17.497Z,1.22
2022-12-04T08:43:46.403Z,1.22
2022-12-04T08:46:16.062Z,1.52
2022-12-04T08:48:43.139Z,1.41
2022-12-04T08:51:30.309Z,1.70
2022-12-04T08:53:59.689Z,1.54
2022-12-04T08:56:27.908Z,1.67
2022-12-04T08:58:56.232Z,1.75
2022-12-04T09:01:25.731Z,1.68
2022-12-04T09:03:52.490Z,1.93
2022-12-04T09:06:19.851Z,1.95
2022-12-04T09:08:46.539Z,1.72
2022-12-04T09:11:18.890Z,2.00
2022-12-04T09:13:46.081Z,2.10
2022-12-04T09:16:18.777Z,2.04
2022-12-04T09:18:45.958Z,2.13
2022-12-04T09:21:14.858Z,2.11
2022-12-04T09:23:42.088Z,2.15
2022-12-04T09:26:28.359Z,2.22
2022-12-04T09:28:56.267Z,2.20
2022-12-04T09:31:24.544Z,2.25
2022-12-04T09:33:51.533Z,2.01
2022-12-04T09:36:18.501Z,2.32
2022-12-04T09:38:47.951Z,2.17
2022-12-04T09:41:36.453Z,2.22
2022-12-04T09:44:17.245Z,2.10
2022-12-04T09:47:21.590Z,2.33
2022-12-04T09:49:57.399Z,2.37
2022-12-04T09:52:36.625Z,2.36
2022-12-04T09:55:05.635Z,2.47
2022-12-04T09:57:35.201Z,2.50
2022-12-04T10:00:04.643Z,2.50
2022-12-04T10:02:42.552Z,2.53
2022-12-04T10:06:03.162Z,2.58
2022-12-04T10:08:35.501Z,2.60
2022-12-04T10:11:32.266Z,2.58
2022-12-04T10:14:12.829Z,2.66
2022-12-04T10:16:55.733Z,2.64
2022-12-04T10:19:34.621Z,2.86
2022-12-04T10:22:20.763Z,2.83
2022-12-04T10:24:54.240Z,2.91
2022-12-04T10:27:30.718Z,2.89
2022-12-04T10:30:03.495Z,2.88
2022-12-04T10:32:33.718Z,3.02
2022-12-04T10:35:19.236Z,2.76
2022-12-04T10:37:48.390Z,2.80
2022-12-04T10:40:41.353Z,2.88
2022-12-04T10:43:29.351Z,2.94
2022-12-04T10:45:58.711Z,2.75
2022-12-04T10:48:36.005Z,2.87
2022-12-04T10:51:02.714Z,2.99
2022-12-04T10:53:37.084Z,3.01
2022-12-04T10:56:09.671Z,2.97
2022-12-04T10:58:36.267Z,2.79
2022-12-04T11:01:06.397Z,3.07
2022-12-04T11:03:34.325Z,3.10
2022-12-04T11:06:04.689Z,3.09
2022-12-04T11:08:53.407Z,3.16
2022-12-04T11:11:39.229Z,3.13
2022-12-04T11:14:18.195Z,3.06
2022-12-04T11:16:48.370Z,3.06
2022-12-04T11:19:24.068Z,3.17
2022-12-04T11:21:52.763Z,3.16
2022-12-04T11:24:23.227Z,2.80
2022-12-04T11:26:51.105Z,2.80
2022-12-04T11:29:20.930Z,2.89
2022-12-04T11:31:50.237Z,2.79
2022-12-04T11:34:23.032Z,2.49
2022-12-04T11:36:56.372Z,2.66
2022-12-04T11:39:32.152Z,2.75
2022-12-04T11:42:17.092Z,2.90
2022-12-04T11:44:57.334Z,2.93
2022-12-04T11:47:27.684Z,2.76
2022-12-04T11:50:19.007Z,3.04
2022-12-04T11:52:59.321Z,2.99
2022-12-04T11:55:35.235Z,3.28
2022-12-04T11:58:12.949Z,3.30
2022-12-04T12:00:57.307Z,3.35
2022-12-04T12:03:43.741Z,3.15
2022-12-04T12:06:23.920Z,2.99
2022-12-04T12:08:53.557Z,3.34
2022-12-04T12:11:38.925Z,3.31
2022-12-04T12:14:19.161Z,3.28
2022-12-04T12:17:14.036Z,3.23
2022-12-04T12:19:58.227Z,3.17
2022-12-04T12:22:49.491Z,3.14
2022-12-04T12:25:21.223Z,3.08
2022-12-04T12:28:29.672Z,3.12
2022-12-04T12:31:21.294Z,3.14
2022-12-04T12:34:03.407Z,3.13
2022-12-04T12:36:40.015Z,3.05
2022-12-04T12:39:20.028Z,3.15
2022-12-04T12:41:56.737Z,3.17
2022-12-04T12:44:34.634Z,2.90
2022-12-04T12:47:08.674Z,3.03
2022-12-04T12:49:45.154Z,3.03
2022-12-04T12:52:16.364Z,3.33
2022-12-04T12:54:48.297Z,3.21
2022-12-04T12:58:13.667Z,3.25
2022-12-04T13:01:22.595Z,3.24
2022-12-04T13:04:03.531Z,3.18
2022-12-04T13:06:38.083Z,3.06
2022-12-04T13:09:29.811Z,3.18
2022-12-04T13:12:02.560Z,3.16
2022-12-04T13:14:32.192Z,2.93
2022-12-04T13:17:02.549Z,2.90
2022-12-04T13:19:33.977Z,3.11
2022-12-04T13:22:21.857Z,3.12
2022-12-04T13:25:06.704Z,3.09
2022-12-04T13:28:10.629Z,3.03
2022-12-04T13:30:51.881Z,3.15
2022-12-04T13:33:29.384Z,3.04
2022-12-04T13:36:14.783Z,3.23
2022-12-04T13:38:58.261Z,3.24
2022-12-04T13:41:28.014Z,3.13
2022-12-04T13:44:01.777Z,3.22
2022-12-04T13:46:39.772Z,3.20
2022-12-04T13:49:13.492Z,3.20
2022-12-04T13:51:42.188Z,3.23
2022-12-04T13:54:11.889Z,3.24
2022-12-04T13:56:44.705Z,3.27
2022-12-04T13:59:30.916Z,3.29
2022-12-04T14:02:05.065Z,3.26
2022-12-04T14:04:46.097Z,3.24
2022-12-04T14:07:31.925Z,3.14
2022-12-04T14:10:04.616Z,3.14
2022-12-04T14:12:36.399Z,3.21
2022-12-04T14:15:22.559Z,2.57
2022-12-04T14:18:16.405Z,3.15
2022-12-04T14:20:47.326Z,2.95
2022-12-04T14:23:19.957Z,3.11
2022-12-04T14:25:46.660Z,3.02
2022-12-04T14:28:25.665Z,3.04
2022-12-04T14:31:03.593Z,3.12
2022-12-04T14:33:32.846Z,3.07
2022-12-04T14:36:11.265Z,2.99
2022-12-04T14:38:38.566Z,3.06
2022-12-04T14:41:05.435Z,3.06
2022-12-04T14:43:39.686Z,2.90
2022-12-04T14:46:18.930Z,3.06
2022-12-04T14:49:19.679Z,3.08
2022-12-04T14:52:04.582Z,3.04
2022-12-04T14:54:43.376Z,3.10
2022-12-04T14:57:43.544Z,3.08
2022-12-04T15:00:20.058Z,3.05
2022-12-04T15:02:49.137Z,2.99
2022-12-04T15:05:29.278Z,2.86
2022-12-04T15:08:02.310Z,3.00
2022-12-04T15:10:50.142Z,3.06
2022-12-04T15:13:34.270Z,3.02
2022-12-04T15:16:20.796Z,3.05
2022-12-04T15:18:55.181Z,3.07
2022-12-04T15:21:24.193Z,2.99
2022-12-04T15:23:50.930Z,2.71
2022-12-04T15:26:20.986Z,2.93
2022-12-04T15:28:52.662Z,3.09
2022-12-04T15:31:24.117Z,2.86
2022-12-04T15:33:56.697Z,2.85
2022-12-04T15:36:42.898Z,3.05
2022-12-04T15:39:21.442Z,3.04
2022-12-04T15:41:48.576Z,3.00
2022-12-04T15:44:29.891Z,3.10
2022-12-04T15:47:00.176Z,2.96
2022-12-04T15:49:31.370Z,2.89
2022-12-04T15:52:14.381Z,3.09
2022-12-04T15:54:56.688Z,3.09
2022-12-04T15:57:35.448Z,2.88
2022-12-04T16:00:05.339Z,2.97
2022-12-04T16:02:35.906Z,3.10
2022-12-04T16:05:21.871Z,3.03
2022-12-04T16:08:01.536Z,3.16
2022-12-04T16:10:35.623Z,3.14
2022-12-04T16:13:04.962Z,3.14
2022-12-04T16:15:38.810Z,3.17
2022-12-04T16:18:07.157Z,3.15
2022-12-04T16:20:36.047Z,2.97
2022-12-04T16:23:03.935Z,3.15
2022-12-04T16:25:31.625Z,3.19
2022-12-04T16:27:59.577Z,3.16
2022-12-04T16:30:27.963Z,3.09
2022-12-04T16:32:54.646Z,3.17
2022-12-04T16:35:21.565Z,3.17
2022-12-04T16:37:48.272Z,3.08
2022-12-04T16:40:15.779Z,3.20
2022-12-04T16:42:44.085Z,3.10
2022-12-04T16:45:31.305Z,3.23
2022-12-04T16:47:58.481Z,3.15
2022-12-04T16:50:26.235Z,3.07
2022-12-04T16:52:53.479Z,3.22
2022-12-04T16:55:29.316Z,2.98
2022-12-04T16:57:55.994Z,3.04
2022-12-04T17:00:22.840Z,3.25
2022-12-04T17:02:49.637Z,3.04
2022-12-04T17:05:24.888Z,3.13
2022-12-04T17:07:51.748Z,3.10
2022-12-04T17:10:23.730Z,3.17
2022-12-04T17:12:54.645Z,3.05
2022-12-04T17:15:21.604Z,3.28
2022-12-04T17:17:48.514Z,3.29
2022-12-04T17:20:17.935Z,3.28
2022-12-04T17:22:44.644Z,3.30
2022-12-04T17:25:12.020Z,3.25
2022-12-04T17:27:39.599Z,3.20
2022-12-04T17:30:07.383Z,3.05
2022-12-04T17:32:37.451Z,3.07
2022-12-04T17:35:06.674Z,3.27
2022-12-04T17:37:34.140Z,3.27
2022-12-04T17:40:00.853Z,2.86
2022-12-04T17:42:27.750Z,3.05
2022-12-04T17:44:54.507Z,3.12
2022-12-04T17:47:21.407Z,3.12
2022-12-04T17:49:48.122Z,3.21
2022-12-04T17:52:14.832Z,3.17
2022-12-04T17:54:41.529Z,3.20
2022-12-04T17:57:08.292Z,3.18
2022-12-04T17:59:35.019Z,3.25
2022-12-04T18:02:01.779Z,2.91
2022-12-04T18:04:28.493Z,3.19
2022-12-04T18:06:56.444Z,3.09
2022-12-04T18:09:23.330Z,3.25
2022-12-04T18:11:50.041Z,3.26
2022-12-04T18:14:19.271Z,3.26
2022-12-04T18:16:52.844Z,3.25
2022-12-04T18:19:22.373Z,3.11
2022-12-04T18:21:49.689Z,3.28
2022-12-04T18:24:17.847Z,3.26
2022-12-04T18:26:48.097Z,3.26
2022-12-04T18:29:26.020Z,3.29
2022-12-04T18:31:53.417Z,3.25
2022-12-04T18:34:20.450Z,3.28
2022-12-04T18:36:50.255Z,3.02
2022-12-04T18:39:19.696Z,3.03
2022-12-04T18:41:47.526Z,3.20
2022-12-04T18:44:15.185Z,3.22
2022-12-04T18:46:42.600Z,3.23
2022-12-04T18:49:10.655Z,3.18
2022-12-04T18:51:37.820Z,3.24
2022-12-04T18:54:08.540Z,3.12
2022-12-04T18:56:35.893Z,3.25
2022-12-04T18:59:14.901Z,3.25
2022-12-04T19:01:42.386Z,2.98
2022-12-04T19:04:11.270Z,3.22
2022-12-04T19:06:43.388Z,3.24
2022-12-04T19:09:17.224Z,3.25
2022-12-04T19:11:45.218Z,3.21
2022-12-04T19:14:22.407Z,3.28
2022-12-04T19:16:50.423Z,3.20
2022-12-04T19:19:17.841Z,3.22
2022-12-04T19:21:44.760Z,3.06
2022-12-04T19:24:12.397Z,3.20
2022-12-04T19:26:39.801Z,2.56
2022-12-04T19:29:07.196Z,3.18
2022-12-04T19:31:36.401Z,3.19
2022-12-04T19:34:04.255Z,3.07
2022-12-04T19:36:33.096Z,3.26
2022-12-04T19:39:01.061Z,3.22
2022-12-04T19:41:37.169Z,3.16
2022-12-04T19:44:20.030Z,3.13
2022-12-04T19:46:51.150Z,3.01
2022-12-04T19:49:17.840Z,3.16
2022-12-04T19:51:44.693Z,2.92
2022-12-04T19:54:13.041Z,2.97
2022-12-04T19:56:39.889Z,2.94
2022-12-04T19:59:08.057Z,3.07
2022-12-04T20:01:35.730Z,2.90
2022-12-04T20:04:06.431Z,3.11
2022-12-04T20:06:51.268Z,3.06
2022-12-04T20:09:23.610Z,3.14
2022-12-04T20:11:50.429Z,2.88
2022-12-04T20:14:17.575Z,2.97
2022-12-04T20:16:44.895Z,2.93
2022-12-04T20:19:15.466Z,3.12
2022-12-04T20:21:42.816Z,3.04
2022-12-04T20:24:12.235Z,3.02
2022-12-04T20:26:41.057Z,3.08
2022-12-04T20:29:10.864Z,2.96
2022-12-04T20:31:39.853Z,3.10
2022-12-04T20:34:10.292Z,3.03
2022-12-04T20:36:42.945Z,3.12
2022-12-04T20:39:11.423Z,2.84
2022-12-04T20:41:38.967Z,3.05
2022-12-04T20:44:08.053Z,3.06
2022-12-04T20:46:39.375Z,2.91
2022-12-04T20:49:08.648Z,2.79
2022-12-04T20:51:40.680Z,2.94
2022-12-04T20:54:09.238Z,3.08
2022-12-04T20:56:37.608Z,2.90
2022-12-04T20:59:11.311Z,2.90
2022-12-04T21:01:38.321Z,2.90
2022-12-04T21:04:06.277Z,3.11
2022-12-04T21:06:36.031Z,3.12
2022-12-04T21:09:06.286Z,2.91
2022-12-04T21:11:35.806Z,3.08
2022-12-04T21:14:23.548Z,2.93
2022-12-04T21:16:50.774Z,2.99
2022-12-04T21:19:22.325Z,3.04
2022-12-04T21:21:49.860Z,2.84
2022-12-04T21:24:18.784Z,3.10
2022-12-04T21:26:45.553Z,2.93
2022-12-04T21:29:12.836Z,3.11
2022-12-04T21:31:39.942Z,3.03
2022-12-04T21:34:10.355Z,3.03
2022-12-04T21:36:37.097Z,3.05
2022-12-04T21:39:04.527Z,2.94
2022-12-04T21:41:49.718Z,3.01
2022-12-04T21:44:18.583Z,2.98
2022-12-04T21:46:46.354Z,3.00
2022-12-04T21:49:13.891Z,2.88
2022-12-04T21:51:56.860Z,2.90
2022-12-04T21:54:25.263Z,2.69
2022-12-04T21:56:51.995Z,2.85
2022-12-04T21:59:18.739Z,3.02
2022-12-04T22:01:49.061Z,2.81
2022-12-04T22:04:16.056Z,3.00
2022-12-04T22:06:45.337Z,2.95
2022-12-04T22:09:13.172Z,3.10
2022-12-04T22:11:44.305Z,3.03
2022-12-04T22:14:14.081Z,3.07
2022-12-04T22:16:43.366Z,3.02
2022-12-04T22:19:12.479Z,3.02
2022-12-04T22:21:40.174Z,2.72
2022-12-04T22:24:07.401Z,2.94
2022-12-04T22:26:34.297Z,2.65
2022-12-04T22:29:01.224Z,2.76
2022-12-04T22:31:29.889Z,2.84
2022-12-04T22:33:59.296Z,2.91
2022-12-04T22:36:31.651Z,2.90
2022-12-04T22:39:09.811Z,2.82
2022-12-04T22:41:37.484Z,2.66
2022-12-04T22:44:04.874Z,2.79
2022-12-04T22:46:32.280Z,2.73
2022-12-04T22:48:59.510Z,2.64
2022-12-04T22:51:27.338Z,2.77
2022-12-04T22:53:56.508Z,2.67
2022-12-04T22:56:32.054Z,2.94
2022-12-04T22:59:01.578Z,2.83
2022-12-04T23:01:31.902Z,2.78
2022-12-04T23:03:59.736Z,2.88
2022-12-04T23:06:29.872Z,2.87
2022-12-04T23:09:00.345Z,2.80
2022-12-04T23:11:28.131Z,2.86
2022-12-04T23:14:01.361Z,2.69
2022-12-04T23:16:30.791Z,2.86
2022-12-04T23:18:58.087Z,2.80
2022-12-04T23:21:25.414Z,2.85
2022-12-04T23:23:54.404Z,2.81
2022-12-04T23:26:25.370Z,2.60
2022-12-04T23:28:52.377Z,2.71
2022-12-04T23:31:19.541Z,2.73
2022-12-04T23:33:46.305Z,2.81
2022-12-04T23:36:14.337Z,2.66
2022-12-04T23:38:42.633Z,2.65
2022-12-04T23:41:25.705Z,2.71
2022-12-04T23:43:53.598Z,2.69
2022-12-04T23:46:27.584Z,2.51
2022-12-04T23:48:55.184Z,2.75
2022-12-04T23:51:22.271Z,2.60
2022-12-04T23:53:49.415Z,2.73
2022-12-04T23:56:22.771Z,2.52
2022-12-04T23:58:51.463Z,2.75
